createdAt,value
2023-03-22T00:03:05.883Z,3.67
2023-03-22T00:06:11.429Z,3.85
2023-03-22T00:09:17.059Z,3.84
2023-03-22T00:12:23.735Z,3.92
2023-03-22T00:15:30.653Z,4.04
2023-03-22T00:18:35.893Z,3.90
2023-03-22T00:21:40.924Z,3.97
2023-03-22T00:24:46.336Z,3.94
2023-03-22T00:27:53.539Z,3.77
2023-03-22T00:31:00.952Z,3.81
2023-03-22T00:34:06.047Z,3.77
2023-03-22T00:37:12.945Z,3.96
2023-03-22T00:40:18.447Z,3.95
2023-03-22T00:43:25.088Z,4.09
2023-03-22T00:46:30.555Z,3.96
2023-03-22T00:49:37.553Z,3.97
2023-03-22T00:52:42.947Z,4.08
2023-03-22T00:55:49.565Z,4.02
2023-03-22T00:58:56.385Z,4.10
2023-03-22T01:02:04.293Z,3.93
2023-03-22T01:05:15.800Z,4.03
2023-03-22T01:08:21.347Z,3.93
2023-03-22T01:11:27.442Z,3.91
2023-03-22T01:14:34.213Z,3.91
2023-03-22T01:17:39.296Z,3.94
2023-03-22T01:20:44.359Z,4.00
2023-03-22T01:23:49.446Z,3.89
2023-03-22T01:26:54.600Z,3.90
2023-03-22T01:30:01.376Z,4.11
2023-03-22T01:33:07.771Z,3.95
2023-03-22T01:36:14.366Z,3.94
2023-03-22T01:39:19.565Z,3.92
2023-03-22T01:42:28.584Z,3.83
2023-03-22T01:45:42.441Z,3.71
2023-03-22T01:48:48.996Z,3.72
2023-03-22T01:51:57.845Z,3.82
2023-03-22T01:55:22.885Z,3.84
2023-03-22T01:58:37.568Z,3.85
2023-03-22T02:01:47.110Z,3.91
2023-03-22T02:04:58.128Z,3.86
2023-03-22T02:08:09.079Z,3.79
2023-03-22T02:11:32.443Z,3.78
2023-03-22T02:14:59.386Z,3.76
2023-03-22T02:18:48.079Z,3.83
2023-03-22T02:22:23.181Z,3.88
2023-03-22T02:25:50.588Z,3.76
2023-03-22T02:28:58.673Z,3.84
2023-03-22T02:32:49.195Z,4.00
2023-03-22T02:36:14.207Z,3.99
2023-03-22T02:39:29.538Z,4.01
2023-03-22T02:42:43.890Z,4.12
2023-03-22T02:45:52.800Z,4.03
2023-03-22T02:49:03.796Z,4.03
2023-03-22T02:52:17.626Z,3.95
2023-03-22T02:55:28.544Z,3.96
2023-03-22T02:58:38.176Z,4.08
2023-03-22T03:01:45.639Z,4.14
2023-03-22T03:04:52.318Z,4.13
2023-03-22T03:07:59.895Z,4.16
2023-03-22T03:11:08.241Z,4.20
2023-03-22T03:14:25.399Z,4.29
2023-03-22T03:17:48.485Z,4.29
2023-03-22T03:21:02.493Z,4.21
2023-03-22T03:24:22.674Z,4.30
2023-03-22T03:27:33.481Z,4.20
2023-03-22T03:30:41.544Z,4.13
2023-03-22T03:33:56.398Z,4.36
2023-03-22T03:37:08.271Z,4.27
2023-03-22T03:40:18.248Z,4.30
2023-03-22T03:43:26.081Z,4.35
2023-03-22T03:46:32.145Z,4.38
2023-03-22T03:49:37.608Z,4.35
2023-03-22T03:52:44.157Z,4.35
2023-03-22T03:55:49.343Z,4.39
2023-03-22T03:58:56.690Z,4.38
2023-03-22T04:02:02.037Z,4.47
2023-03-22T04:05:11.661Z,4.52
2023-03-22T04:08:16.875Z,4.43
2023-03-22T04:11:22.155Z,4.53
2023-03-22T04:14:33.140Z,4.39
2023-03-22T04:17:46.602Z,4.48
2023-03-22T04:20:53.703Z,4.40
2023-03-22T04:24:00.951Z,4.41
2023-03-22T04:27:09.378Z,4.54
2023-03-22T04:30:30.953Z,4.62
2023-03-22T04:33:39.602Z,4.53
2023-03-22T04:36:54.471Z,4.62
2023-03-22T04:40:09.787Z,4.64
2023-03-22T04:43:35.215Z,4.46
2023-03-22T04:46:44.600Z,4.63
2023-03-22T04:49:49.894Z,4.54
2023-03-22T04:52:55.955Z,4.64
2023-03-22T04:56:02.942Z,4.79
2023-03-22T04:59:10.900Z,4.77
2023-03-22T05:02:17.371Z,4.70
2023-03-22T05:05:23.936Z,4.59
2023-03-22T05:08:31.257Z,4.64
2023-03-22T05:11:36.608Z,4.62
2023-03-22T05:15:04.251Z,4.69
2023-03-22T05:18:15.558Z,4.72
2023-03-22T05:21:22.212Z,4.82
2023-03-22T05:24:32.108Z,4.85
2023-03-22T05:27:39.150Z,4.82
2023-03-22T05:31:14.760Z,4.95
2023-03-22T05:34:35.680Z,4.98
2023-03-22T05:37:52.747Z,4.94
2023-03-22T05:40:59.794Z,5.06
2023-03-22T05:44:06.560Z,5.00
2023-03-22T05:47:14.695Z,5.10
2023-03-22T05:50:33.016Z,5.17
2023-03-22T05:53:38.700Z,5.15
2023-03-22T05:57:10.096Z,5.04
2023-03-22T06:00:18.577Z,5.27
2023-03-22T06:03:43.930Z,5.28
2023-03-22T06:07:01.219Z,5.29
2023-03-22T06:10:44.670Z,5.48
2023-03-22T06:13:52.614Z,5.44
2023-03-22T06:17:01.697Z,5.35
2023-03-22T06:20:11.231Z,5.50
2023-03-22T06:23:20.427Z,5.51
2023-03-22T06:26:27.424Z,5.63
2023-03-22T06:29:33.068Z,5.67
2023-03-22T06:32:40.897Z,5.57
2023-03-22T06:35:46.997Z,5.62
2023-03-22T06:39:02.915Z,5.75
2023-03-22T06:42:08.234Z,5.70
2023-03-22T06:45:16.574Z,5.89
2023-03-22T06:48:23.620Z,5.99
2023-03-22T06:51:42.549Z,5.97
2023-03-22T06:54:49.158Z,6.14
2023-03-22T06:57:54.228Z,6.12
2023-03-22T07:00:59.534Z,6.03
2023-03-22T07:04:06.161Z,6.07
2023-03-22T07:07:12.456Z,6.05
2023-03-22T07:10:19.159Z,6.15
2023-03-22T07:13:24.574Z,6.32
2023-03-22T07:16:34.071Z,6.32
2023-03-22T07:19:42.878Z,6.37
2023-03-22T07:22:50.938Z,6.48
2023-03-22T07:26:00.769Z,6.40
2023-03-22T07:29:10.905Z,6.47
2023-03-22T07:32:16.687Z,6.53
2023-03-22T07:35:40.741Z,6.62
2023-03-22T07:38:45.931Z,6.71
2023-03-22T07:41:57.853Z,6.73
2023-03-22T07:45:03.020Z,6.81
2023-03-22T07:48:37.185Z,6.93
2023-03-22T07:52:14.900Z,6.90
2023-03-22T07:55:20.671Z,7.09
2023-03-22T07:58:27.160Z,7.14
2023-03-22T08:01:33.056Z,7.00
2023-03-22T08:05:08.472Z,7.29
2023-03-22T08:08:17.361Z,7.24
2023-03-22T08:11:24.957Z,7.22
2023-03-22T08:14:36.668Z,7.23
2023-03-22T08:17:46.456Z,7.31
2023-03-22T08:20:59.981Z,7.25
2023-03-22T08:24:07.973Z,7.41
2023-03-22T08:27:27.541Z,7.45
2023-03-22T08:30:36.034Z,7.40
2023-03-22T08:33:41.757Z,7.48
2023-03-22T08:36:46.886Z,7.39
2023-03-22T08:39:52.283Z,7.53
2023-03-22T08:43:08.947Z,7.39
2023-03-22T08:46:16.268Z,7.45
2023-03-22T08:49:24.150Z,7.50
2023-03-22T08:52:38.668Z,7.70
2023-03-22T08:56:02.364Z,7.89
2023-03-22T08:59:20.137Z,7.92
2023-03-22T09:02:50.314Z,7.96
2023-03-22T09:05:55.831Z,7.99
2023-03-22T09:09:01.055Z,8.21
2023-03-22T09:12:07.467Z,8.14
2023-03-22T09:15:14.816Z,8.15
2023-03-22T09:18:26.211Z,8.17
2023-03-22T09:21:34.101Z,8.32
2023-03-22T09:25:06.270Z,8.15
2023-03-22T09:28:12.145Z,8.20
2023-03-22T09:31:20.419Z,8.21
2023-03-22T09:34:32.085Z,8.36
2023-03-22T09:37:37.618Z,8.51
2023-03-22T09:40:52.322Z,8.51
2023-03-22T09:43:59.954Z,8.69
2023-03-22T09:47:06.916Z,8.73
2023-03-22T09:50:16.984Z,8.85
2023-03-22T09:53:24.372Z,8.90
2023-03-22T09:56:31.382Z,9.00
2023-03-22T09:59:42.227Z,9.08
2023-03-22T10:02:57.511Z,8.90
2023-03-22T10:06:06.159Z,9.10
2023-03-22T10:09:17.103Z,9.25
2023-03-22T10:12:26.384Z,9.31
2023-03-22T10:15:34.988Z,9.49
2023-03-22T10:18:43.524Z,9.52
2023-03-22T10:21:52.191Z,9.59
2023-03-22T10:24:58.594Z,9.47
2023-03-22T10:28:04.206Z,9.32
2023-03-22T10:31:17.637Z,9.47
2023-03-22T10:34:28.190Z,9.55
2023-03-22T10:37:36.326Z,9.54
2023-03-22T10:40:41.627Z,9.45
2023-03-22T10:43:49.600Z,9.52
2023-03-22T10:46:55.815Z,9.59
2023-03-22T10:50:03.697Z,9.52
2023-03-22T10:53:14.127Z,9.77
2023-03-22T10:56:21.410Z,9.77
2023-03-22T10:59:47.422Z,9.61
2023-03-22T11:02:56.012Z,9.81
2023-03-22T11:06:06.934Z,9.75
2023-03-22T11:09:17.337Z,9.74
2023-03-22T11:12:22.807Z,9.64
2023-03-22T11:15:30.625Z,9.75
2023-03-22T11:18:36.683Z,9.75
2023-03-22T11:21:43.944Z,9.74
2023-03-22T11:24:50.596Z,9.81
2023-03-22T11:27:57.916Z,9.83
2023-03-22T11:31:06.361Z,9.73
2023-03-22T11:34:19.419Z,9.88
2023-03-22T11:37:24.491Z,9.85
2023-03-22T11:40:33.077Z,9.98
2023-03-22T11:43:40.012Z,10.03
2023-03-22T11:46:52.948Z,9.76
2023-03-22T11:49:58.265Z,9.93
2023-03-22T11:53:05.136Z,10.01
2023-03-22T11:56:14.760Z,10.15
2023-03-22T11:59:26.338Z,10.42
2023-03-22T12:02:33.984Z,10.29
2023-03-22T12:05:42.454Z,10.32
2023-03-22T12:08:53.446Z,10.36
2023-03-22T12:12:01.690Z,10.39
2023-03-22T12:15:12.399Z,10.15
2023-03-22T12:18:20.982Z,10.26
2023-03-22T12:21:26.398Z,10.35
2023-03-22T12:24:32.876Z,10.24
2023-03-22T12:27:42.702Z,10.17
2023-03-22T12:30:49.934Z,10.26
2023-03-22T12:33:56.474Z,10.28
2023-03-22T12:37:03.576Z,10.28
2023-03-22T12:40:20.808Z,10.33
2023-03-22T12:43:40.640Z,10.46
2023-03-22T12:46:50.607Z,10.43
2023-03-22T12:50:00.393Z,10.45
2023-03-22T12:53:06.649Z,10.60
2023-03-22T12:56:14.555Z,10.38
2023-03-22T12:59:24.409Z,10.55
2023-03-22T13:02:32.152Z,10.65
2023-03-22T13:05:38.818Z,10.47
2023-03-22T13:09:06.200Z,10.67
2023-03-22T13:12:35.662Z,10.60
2023-03-22T13:15:57.661Z,10.65
2023-03-22T13:19:06.774Z,10.82
2023-03-22T13:22:21.815Z,10.62
2023-03-22T13:25:31.858Z,10.59
2023-03-22T13:28:38.295Z,10.80
2023-03-22T13:31:46.303Z,10.72
2023-03-22T13:34:54.107Z,10.67
2023-03-22T13:38:04.358Z,10.81
2023-03-22T13:41:22.705Z,10.99
2023-03-22T13:44:31.657Z,11.06
2023-03-22T13:47:44.730Z,10.94
2023-03-22T13:50:50.418Z,10.99
2023-03-22T13:54:01.450Z,11.12
2023-03-22T13:57:06.682Z,11.21
2023-03-22T14:00:22.576Z,11.05
2023-03-22T14:03:32.389Z,11.00
2023-03-22T14:06:43.542Z,11.12
2023-03-22T14:09:52.650Z,11.01
2023-03-22T14:13:01.515Z,10.88
2023-03-22T14:16:11.061Z,10.91
2023-03-22T14:19:20.125Z,10.89
